Time;durP1;ratioP1;P1;durP2;ratioP2;P2;SDS_P1;SDS_P2;PMS_P1;PMS_P2;Temp;Humidity;BMP_temperature;BMP_pressure;BME280_temperature;BME280_humidity;BME280_pressure;Samples;Min_cycle;Max_cycle;Signal;HPM_P1;HPM_P2
2022/05/29 00:01:57;;;;;;;18.15;6.65;;;;;;;17.80;69.31;93522.91;4983046;28;20046;-73
2022/05/29 00:04:23;;;;;;;18.88;8.38;;;;;;;17.84;69.12;93521.84;4981854;28;20057;-73
2022/05/29 00:06:53;;;;;;;16.77;7.70;;;;;;;17.98;68.83;93505.13;4982748;28;20468;-73
2022/05/29 00:09:52;;;;;;;15.98;7.95;;;;;;;17.72;68.62;93448.66;4982724;28;20560;-73
2022/05/29 00:12:19;;;;;;;11.35;7.07;;;;;;;18.13;68.75;93517.59;4979111;28;20043;-73
2022/05/29 00:14:47;;;;;;;11.57;6.25;;;;;;;18.22;68.49;93525.38;4964698;28;20041;-73
2022/05/29 00:17:13;;;;;;;14.60;6.03;;;;;;;18.24;68.21;93498.84;4951619;28;20075;-73
2022/05/29 00:19:39;;;;;;;17.15;7.05;;;;;;;17.99;68.45;93480.50;4952932;28;20129;-72
2022/05/29 00:22:04;;;;;;;10.88;6.57;;;;;;;17.92;69.63;93518.09;4948322;28;20053;-72
2022/05/29 00:24:30;;;;;;;8.75;5.43;;;;;;;17.69;70.56;93492.44;4957427;28;20023;-73
2022/05/29 00:26:55;;;;;;;14.35;7.72;;;;;;;18.08;69.74;93495.63;4950362;28;20392;-72
2022/05/29 00:29:21;;;;;;;8.30;5.93;;;;;;;17.54;69.79;93448.44;4957663;28;20035;-72
2022/05/29 00:31:47;;;;;;;21.25;7.28;;;;;;;17.87;69.74;93445.00;4951530;28;20505;-73
2022/05/29 00:34:13;;;;;;;12.02;6.32;;;;;;;18.13;68.42;93431.47;4954044;28;20034;-72
2022/05/29 00:36:40;;;;;;;10.35;6.25;;;;;;;18.25;67.88;93416.97;4949632;28;20038;-73
2022/05/29 00:39:08;;;;;;;11.25;6.55;;;;;;;18.10;67.69;93412.59;4951069;28;20376;-71
2022/05/29 00:41:36;;;;;;;9.45;5.82;;;;;;;17.85;68.88;93423.84;4952695;28;20153;-73
2022/05/29 00:44:12;;;;;;;13.05;5.70;;;;;;;17.73;69.25;93410.66;4962701;28;20508;-72
2022/05/29 00:46:59;;;;;;;8.88;5.22;;;;;;;17.04;71.74;93391.31;4978702;28;20504;-73
2022/05/29 00:49:32;;;;;;;11.82;5.93;;;;;;;16.82;73.22;93410.94;4983041;28;20072;-72
2022/05/29 00:52:16;;;;;;;9.50;6.10;;;;;;;17.34;71.66;93438.97;4978861;28;20535;-73
2022/05/29 00:55:00;;;;;;;11.40;4.90;;;;;;;17.34;70.53;93450.50;4980064;28;20085;-72
2022/05/29 00:57:31;;;;;;;10.13;6.05;;;;;;;15.91;75.44;93416.31;4980742;28;20042;-72
2022/05/29 01:00:09;;;;;;;11.43;6.43;;;;;;;16.04;76.51;93419.59;4979821;28;20042;-73
2022/05/29 01:02:34;;;;;;;11.13;5.45;;;;;;;15.85;76.28;93398.97;4980353;28;20037;-72
2022/05/29 01:05:03;;;;;;;8.18;5.05;;;;;;;16.08;76.55;93390.97;4968994;28;20035;-72
2022/05/29 01:07:29;;;;;;;10.30;4.85;;;;;;;16.14;75.19;93376.88;4973610;28;20533;-73
2022/05/29 01:09:54;;;;;;;11.02;6.50;;;;;;;16.46;73.72;93377.44;4962677;28;20139;-71
2022/05/29 01:12:39;;;;;;;10.07;4.20;;;;;;;16.75;72.59;93387.47;4976620;28;20046;-73
2022/05/29 01:15:12;;;;;;;5.53;3.50;;;;;;;17.10;71.17;93408.69;4983777;28;20035;-72
2022/05/29 01:17:43;;;;;;;8.35;3.72;;;;;;;16.82;71.46;93394.09;4979606;28;20437;-72
2022/05/29 01:20:35;;;;;;;9.93;3.90;;;;;;;16.25;73.28;93391.25;4981818;28;20145;-72
2022/05/29 01:23:14;;;;;;;11.30;4.32;;;;;;;16.95;71.77;93425.75;4980500;28;20050;-72
2022/05/29 01:26:11;;;;;;;6.82;3.38;;;;;;;17.28;70.13;93397.41;4978903;28;20035;-72
2022/05/29 01:28:55;;;;;;;5.85;2.92;;;;;;;17.43;68.82;93377.63;4983025;28;20045;-72
2022/05/29 01:31:43;;;;;;;5.25;2.00;;;;;;;17.59;66.40;93391.66;4979441;28;20116;-73
2022/05/29 01:34:33;;;;;;;5.93;2.40;;;;;;;17.68;64.29;93377.94;4984545;28;20076;-72
2022/05/29 01:37:14;;;;;;;4.57;1.23;;;;;;;17.68;62.86;93377.94;4978467;28;20378;-73
2022/05/29 01:40:07;;;;;;;4.38;1.67;;;;;;;17.66;62.26;93359.47;4986200;28;20042;-73
2022/05/29 01:42:37;;;;;;;5.00;1.45;;;;;;;17.57;62.02;93361.66;4981253;28;20038;-73
2022/05/29 01:45:28;;;;;;;3.10;1.63;;;;;;;17.58;61.96;93371.28;4975472;28;20040;-72
2022/05/29 01:48:11;;;;;;;4.40;1.23;;;;;;;17.54;61.48;93365.09;4982647;28;20604;-73
2022/05/29 01:50:54;;;;;;;4.03;1.25;;;;;;;17.53;61.16;93350.88;4985054;28;20033;-73
2022/05/29 01:53:32;;;;;;;4.30;1.20;;;;;;;17.40;60.95;93330.00;4984334;28;20607;-73
2022/05/29 01:56:04;;;;;;;5.63;1.55;;;;;;;17.48;60.21;93328.94;4982675;28;20404;-73
2022/05/29 01:58:35;;;;;;;5.43;2.58;;;;;;;17.68;60.64;93362.56;4982959;28;20030;-72
2022/05/29 02:01:03;;;;;;;7.80;1.92;;;;;;;17.71;60.81;93361.03;4984063;28;20034;-72
2022/05/29 02:03:34;;;;;;;4.82;1.58;;;;;;;17.67;61.61;93347.56;4981091;28;20034;-73
2022/05/29 02:06:09;;;;;;;4.95;1.40;;;;;;;17.61;62.67;93357.09;4982987;28;20130;-72
2022/05/29 02:09:03;;;;;;;7.60;2.10;;;;;;;17.58;63.34;93357.84;4986303;28;20050;-73
2022/05/29 02:11:31;;;;;;;7.63;2.58;;;;;;;17.50;63.78;93351.59;4983542;28;20121;-72
2022/05/29 02:13:59;;;;;;;5.78;1.85;;;;;;;17.48;63.73;93347.75;4981065;28;20042;-73
2022/05/29 02:16:44;;;;;;;5.80;1.65;;;;;;;17.52;63.53;93337.81;4982955;28;20038;-73
2022/05/29 02:19:16;;;;;;;5.57;1.63;;;;;;;17.46;62.73;93328.50;4983906;28;20040;-72
2022/05/29 02:21:46;;;;;;;3.15;1.90;;;;;;;17.42;62.56;93328.47;4982697;28;20081;-73
2022/05/29 02:24:16;;;;;;;6.75;1.38;;;;;;;16.58;64.20;93314.72;4986671;28;20041;-73
2022/05/29 02:26:50;;;;;;;7.60;1.83;;;;;;;16.88;66.36;93337.00;4982229;28;20160;-73
2022/05/29 02:29:16;;;;;;;9.20;2.13;;;;;;;17.11;66.00;93324.25;4985006;28;20582;-72
2022/05/29 02:32:08;;;;;;;5.68;2.17;;;;;;;17.33;65.98;93324.53;4984313;28;20072;-72
2022/05/29 02:34:55;;;;;;;9.77;2.35;;;;;;;17.39;65.99;93317.69;4982479;28;20487;-73
2022/05/29 02:37:40;;;;;;;3.95;1.95;;;;;;;17.45;65.62;93306.22;4985071;28;20061;-73
2022/05/29 02:40:19;;;;;;;;;;;;;;;17.47;65.20;93300.50;4982793;28;20026;-73
2022/05/29 02:42:57;;;;;;;6.75;2.05;;;;;;;17.54;64.85;93295.19;4982420;28;19955;-72
2022/05/29 02:45:40;;;;;;;8.93;2.78;;;;;;;17.56;64.40;93303.66;4977544;28;20251;-73
2022/05/29 02:48:39;;;;;;;6.68;2.20;;;;;;;17.54;64.46;93300.59;4982250;28;20059;-72
2022/05/29 02:51:23;;;;;;;6.47;2.60;;;;;;;17.47;64.57;93297.81;4980644;28;20069;-72
2022/05/29 02:53:48;;;;;;;4.45;2.47;;;;;;;17.47;65.02;93297.81;4983476;28;20694;-73
2022/05/29 02:56:15;;;;;;;5.97;2.55;;;;;;;17.39;65.37;93296.19;4985083;28;20074;-73
2022/05/29 02:58:45;;;;;;;13.40;2.95;;;;;;;17.33;66.08;93293.06;4985926;28;20038;-73
2022/05/29 03:01:29;;;;;;;9.88;3.97;;;;;;;17.03;67.21;93282.31;4980736;28;20502;-72
2022/05/29 03:04:24;;;;;;;6.93;3.40;;;;;;;16.88;68.50;93277.13;4982184;28;20018;-73
2022/05/29 03:06:53;;;;;;;9.00;3.65;;;;;;;16.16;71.15;93285.31;4980797;28;20050;-72
2022/05/29 03:10:03;;;;;;;13.45;5.00;;;;;;;16.78;69.31;93278.53;4984125;28;20125;-72
2022/05/29 03:12:42;;;;;;;7.20;3.25;;;;;;;17.02;68.15;93274.63;4959262;28;20056;-72
2022/05/29 03:15:30;;;;;;;11.40;4.30;;;;;;;17.22;67.17;93276.03;4952871;28;20183;-73
2022/05/29 03:18:17;;;;;;;8.45;3.67;;;;;;;17.27;66.95;93273.03;4974539;28;20097;-72
2022/05/29 03:20:54;;;;;;;9.55;3.67;;;;;;;17.26;67.13;93260.72;4982808;28;20038;-73
2022/05/29 03:23:22;;;;;;;5.05;2.80;;;;;;;17.43;66.33;93262.06;4978993;28;20465;-73
2022/05/29 03:25:56;;;;;;;5.90;3.70;;;;;;;17.47;65.89;93268.22;4981633;28;20052;-72
2022/05/29 03:28:33;;;;;;;9.93;4.13;;;;;;;17.48;65.71;93259.81;4981311;28;20177;-72
2022/05/29 03:31:04;;;;;;;9.68;4.18;;;;;;;17.52;66.06;93257.16;4975562;28;20030;-73
2022/05/29 03:33:29;;;;;;;6.93;2.95;;;;;;;17.56;65.67;93264.09;4985768;28;20081;-73
2022/05/29 03:35:55;;;;;;;8.82;3.95;;;;;;;17.62;65.72;93264.53;4983242;28;20136;-72
2022/05/29 03:38:21;;;;;;;5.55;3.63;;;;;;;17.64;65.48;93259.59;4985139;28;20127;-73
2022/05/29 03:40:48;;;;;;;12.50;6.28;;;;;;;17.47;66.31;93260.94;4982789;28;20563;-73
2022/05/29 03:43:13;;;;;;;17.13;7.75;;;;;;;17.70;65.74;93262.72;4981798;28;20504;-73
2022/05/29 03:45:39;;;;;;;14.00;6.15;;;;;;;17.48;66.46;93249.06;4982639;28;20018;-72
2022/05/29 03:48:05;;;;;;;12.23;6.75;;;;;;;17.34;65.88;93207.81;4980694;28;20045;-72
2022/05/29 03:50:33;;;;;;;11.43;6.00;;;;;;;17.71;65.83;93265.00;4980389;28;20416;-72
2022/05/29 03:53:00;;;;;;;6.35;3.08;;;;;;;17.69;65.61;93253.88;4985155;28;20043;-73
2022/05/29 03:55:26;;;;;;;6.03;2.88;;;;;;;17.66;65.46;93241.16;4982346;28;20039;-72
2022/05/29 03:57:52;;;;;;;7.93;2.85;;;;;;;17.80;64.51;93257.41;4979830;28;20089;-72
2022/05/29 04:00:19;;;;;;;7.72;2.92;;;;;;;17.65;64.93;93228.09;4980844;28;20452;-73
2022/05/29 04:02:46;;;;;;;8.82;3.05;;;;;;;17.54;66.44;93238.75;4985350;28;20030;-73
2022/05/29 04:05:14;;;;;;;6.75;3.63;;;;;;;17.38;66.63;93214.78;4982588;28;20034;-73
2022/05/29 04:13:10;;;;;;;9.63;4.30;;;;;;;17.73;66.35;93225.09;4983107;28;20072;-73
2022/05/29 04:15:37;;;;;;;20.27;4.82;;;;;;;17.82;65.95;93236.28;4980455;28;20057;-72
2022/05/29 04:18:03;;;;;;;7.13;3.03;;;;;;;17.75;66.01;93216.63;4976008;28;20037;-73
2022/05/29 04:20:29;;;;;;;8.48;3.80;;;;;;;17.83;66.18;93227.09;4979044;28;20121;-72
2022/05/29 04:22:54;;;;;;;9.20;4.40;;;;;;;17.90;66.57;93229.03;4980180;28;20042;-72
2022/05/29 04:25:19;;;;;;;6.97;3.95;;;;;;;17.91;67.32;93236.75;4978745;28;20026;-73
2022/05/29 04:27:45;;;;;;;9.07;4.45;;;;;;;17.85;66.94;93216.72;4974971;28;20035;-72
2022/05/29 04:30:12;;;;;;;7.22;3.70;;;;;;;18.10;66.31;93249.22;4981283;28;20524;-73
2022/05/29 04:35:21;;;;;;;5.53;3.63;;;;;;;18.10;65.32;93243.06;4979198;28;20061;-71
2022/05/29 04:37:48;;;;;;;6.13;3.10;;;;;;;17.95;65.48;93247.56;4979638;28;20128;-73
2022/05/29 04:40:14;;;;;;;6.28;4.03;;;;;;;17.98;65.80;93253.00;4979877;28;20101;-72
2022/05/29 04:42:40;;;;;;;11.43;3.95;;;;;;;17.93;65.96;93253.34;4982664;28;20377;-72
2022/05/29 04:45:06;;;;;;;6.18;3.30;;;;;;;17.96;65.67;93249.88;4981510;28;20046;-73
2022/05/29 04:47:31;;;;;;;9.60;4.43;;;;;;;17.73;65.64;93229.69;4982800;28;20058;-72
2022/05/29 04:49:56;;;;;;;9.13;4.68;;;;;;;17.83;66.55;93256.69;4981670;28;20591;-72
2022/05/29 04:52:22;;;;;;;7.90;4.32;;;;;;;17.82;68.18;93255.13;4984655;28;20038;-73
2022/05/29 04:54:47;;;;;;;11.02;6.25;;;;;;;18.02;67.33;93259.16;4981480;28;20018;-72
2022/05/29 04:57:13;;;;;;;8.48;4.97;;;;;;;18.02;66.28;93256.47;4979319;28;20030;-73
2022/05/29 04:59:38;;;;;;;9.88;5.15;;;;;;;18.00;66.15;93250.69;4982487;28;20050;-73
2022/05/29 05:02:04;;;;;;;11.65;5.10;;;;;;;18.01;66.58;93254.16;4979294;28;20104;-71
2022/05/29 05:04:29;;;;;;;15.57;4.88;;;;;;;17.85;67.60;93262.44;4981674;28;20038;-72
2022/05/29 05:06:58;;;;;;;13.38;4.10;;;;;;;18.01;66.39;93252.22;4981502;28;20409;-71
2022/05/29 05:09:28;;;;;;;10.43;5.40;;;;;;;17.89;67.25;93232.91;4984143;28;20146;-73
2022/05/29 05:11:54;;;;;;;11.50;4.00;;;;;;;17.95;67.16;93242.97;4986853;28;20096;-72
2022/05/29 05:14:20;;;;;;;6.80;4.63;;;;;;;17.85;67.45;93259.75;4983671;28;20038;-73
2022/05/29 05:16:47;;;;;;;8.55;4.95;;;;;;;17.84;68.47;93255.53;4982371;28;20030;-71
2022/05/29 05:19:13;;;;;;;6.28;4.47;;;;;;;17.94;68.14;93260.22;4985435;28;20042;-73
2022/05/29 05:21:38;;;;;;;10.90;4.93;;;;;;;17.95;67.73;93242.97;4985913;28;20547;-72
2022/05/29 05:24:05;;;;;;;10.23;5.50;;;;;;;18.12;66.63;93251.53;4984752;28;20042;-73
2022/05/29 05:26:30;;;;;;;11.98;6.93;;;;;;;18.09;67.01;93236.91;4981699;28;20037;-71
2022/05/29 05:28:56;;;;;;;10.90;6.72;;;;;;;18.34;66.01;93245.16;4981670;28;20042;-73
2022/05/29 05:31:22;;;;;;;9.07;5.20;;;;;;;18.27;65.72;93247.81;4981402;28;20604;-72
2022/05/29 05:33:47;;;;;;;11.02;5.65;;;;;;;18.46;65.09;93255.63;4984812;28;20037;-71
2022/05/29 05:36:14;;;;;;;12.55;6.00;;;;;;;18.40;66.15;93251.72;4984875;28;20050;-73
2022/05/29 05:38:39;;;;;;;14.02;7.60;;;;;;;18.26;65.94;93238.97;4982739;28;20047;-72
2022/05/29 05:41:05;;;;;;;9.63;5.15;;;;;;;18.34;66.60;93245.16;4983025;28;20042;-71
2022/05/29 05:43:31;;;;;;;8.45;4.10;;;;;;;18.37;65.08;93230.94;4984132;28;20064;-72
2022/05/29 05:45:56;;;;;;;11.32;4.75;;;;;;;18.37;65.67;93250.56;4986186;28;20488;-72
2022/05/29 05:48:23;;;;;;;15.50;6.10;;;;;;;18.50;67.00;93250.25;4981635;28;20057;-72
2022/05/29 05:50:49;;;;;;;12.95;6.40;;;;;;;18.33;69.53;93251.69;4985699;28;20108;-73
2022/05/29 05:53:14;;;;;;;7.82;3.85;;;;;;;18.48;66.69;93226.38;4979398;28;20420;-72
2022/05/29 05:55:40;;;;;;;6.22;3.45;;;;;;;18.18;64.33;93215.84;4978844;28;20408;-73
2022/05/29 05:58:06;;;;;;;7.80;3.53;;;;;;;18.70;64.99;93233.47;4987492;28;20027;-72
2022/05/29 06:00:31;;;;;;;15.20;5.28;;;;;;;18.64;65.25;93229.56;4986641;28;20489;-72
2022/05/29 06:02:56;;;;;;;10.95;5.43;;;;;;;18.85;65.14;93240.47;4982460;28;20124;-72
2022/05/29 06:05:22;;;;;;;9.70;5.65;;;;;;;18.92;64.86;93236.25;4978912;28;20039;-72
2022/05/29 06:07:47;;;;;;;12.00;4.75;;;;;;;19.08;65.08;93244.78;4985031;28;20800;-72
2022/05/29 06:10:13;;;;;;;7.88;3.22;;;;;;;19.01;63.58;93256.31;4984626;28;20554;-73
2022/05/29 06:12:39;;;;;;;6.93;3.30;;;;;;;18.75;63.41;93235.81;4984127;28;20839;-73
2022/05/29 06:15:06;;;;;;;6.25;2.40;;;;;;;18.64;62.64;93243.00;4966417;28;20047;-73
2022/05/29 06:17:32;;;;;;;7.30;2.95;;;;;;;18.55;63.23;93231.81;4970860;28;20034;-72
2022/05/29 06:19:57;;;;;;;6.82;2.40;;;;;;;18.77;62.12;93217.31;4980645;28;20528;-72
2022/05/29 06:22:22;;;;;;;7.38;3.00;;;;;;;18.95;61.53;93224.72;4985112;28;20049;-71
2022/05/29 06:24:48;;;;;;;6.68;1.80;;;;;;;19.20;61.23;93207.47;4975857;28;20065;-71
2022/05/29 06:27:13;;;;;;;9.48;2.45;;;;;;;19.59;59.65;93207.56;4980737;28;20128;-72
2022/05/29 06:29:39;;;;;;;7.43;2.53;;;;;;;19.77;58.86;93209.50;4984783;28;20554;-73
2022/05/29 06:32:08;;;;;;;12.18;2.65;;;;;;;19.41;57.96;93198.63;4982443;28;20038;-72
2022/05/29 06:34:34;;;;;;;6.30;2.13;;;;;;;19.83;57.86;93194.47;4975027;28;20034;-71
2022/05/29 06:37:06;;;;;;;7.60;2.03;;;;;;;19.42;56.09;93170.53;4986383;28;20515;-72
2022/05/29 06:39:35;;;;;;;5.47;2.28;;;;;;;19.18;56.49;93179.34;4984529;28;20599;-72
2022/05/29 06:42:00;;;;;;;8.20;2.65;;;;;;;18.98;57.21;93180.84;4983676;28;20042;-72
2022/05/29 06:44:26;;;;;;;6.97;1.50;;;;;;;19.00;57.04;93186.63;4982586;28;20038;-72
2022/05/29 06:46:52;;;;;;;6.18;2.40;;;;;;;19.01;56.31;93188.19;4983590;28;20042;-72
2022/05/29 06:49:18;;;;;;;4.13;1.90;;;;;;;18.96;56.20;93181.22;4981873;28;20072;-72
2022/05/29 06:51:44;;;;;;;6.25;1.88;;;;;;;18.91;57.42;93164.66;4984236;28;20018;-72
2022/05/29 06:54:09;;;;;;;6.97;1.60;;;;;;;18.86;54.11;93171.19;4980693;28;20073;-73
2022/05/29 06:56:34;;;;;;;4.70;1.35;;;;;;;18.46;53.86;93147.94;4984926;28;20072;-72
2022/05/29 06:59:01;;;;;;;5.70;1.95;;;;;;;18.55;55.23;93161.81;4984268;28;20771;-71
2022/05/29 07:07:20;;;;;;;6.55;2.13;;;;;;;18.80;54.98;93168.09;4991810;28;20283;-72
2022/05/29 07:09:46;;;;;;;8.52;1.90;;;;;;;18.93;54.88;93154.25;4994489;28;20045;-72
2022/05/29 07:12:15;;;;;;;10.82;1.85;;;;;;;18.85;53.20;93154.25;4989459;28;20041;-73
2022/05/29 07:14:46;;;;;;;10.00;2.38;;;;;;;18.84;53.82;93150.00;4978580;28;20039;-71
2022/05/29 07:17:12;;;;;;;7.72;1.90;;;;;;;18.74;54.53;93142.66;4977263;28;20035;-73
2022/05/29 07:19:38;;;;;;;2.60;1.10;;;;;;;18.74;54.60;93117.66;4977585;28;20588;-73
2022/05/29 07:22:03;;;;;;;7.80;1.58;;;;;;;18.69;53.99;93140.31;4980122;28;20327;-71
2022/05/29 07:24:32;;;;;;;7.03;1.75;;;;;;;18.56;54.53;93146.44;4982116;28;20415;-71
2022/05/29 07:26:57;;;;;;;8.18;1.45;;;;;;;18.32;55.77;93097.50;4979519;28;20046;-72
2022/05/29 07:29:23;;;;;;;5.00;2.03;;;;;;;18.88;56.00;93150.00;4984371;28;20031;-70
2022/05/29 07:31:51;;;;;;;6.47;1.80;;;;;;;18.67;54.80;93148.00;4978262;28;20051;-72
2022/05/29 07:34:16;;;;;;;5.03;1.75;;;;;;;18.75;55.49;93149.59;4979169;28;20033;-70
2022/05/29 07:36:42;;;;;;;5.05;1.45;;;;;;;18.80;54.91;93149.25;4979975;28;20031;-71
2022/05/29 07:39:09;;;;;;;5.60;1.30;;;;;;;18.78;54.99;93146.13;4969778;28;20081;-70
2022/05/29 07:44:18;;;;;;;5.28;2.30;;;;;;;18.87;55.85;93143.84;4981087;28;20156;-71
2022/05/29 07:46:43;;;;;;;8.88;2.63;;;;;;;18.96;55.61;93153.50;4978389;28;20508;-72
2022/05/29 07:49:09;;;;;;;6.30;2.15;;;;;;;19.09;55.21;93157.38;4976056;28;20073;-71
2022/05/29 07:51:34;;;;;;;5.60;1.50;;;;;;;19.19;55.78;93153.94;4983946;28;20026;-75
2022/05/29 07:54:00;;;;;;;4.47;2.13;;;;;;;19.17;54.86;93153.53;4982383;28;20034;-75
2022/05/29 07:56:26;;;;;;;7.65;2.10;;;;;;;19.16;55.08;93149.31;4977888;28;20038;-74
2022/05/29 07:58:51;;;;;;;9.75;1.92;;;;;;;18.87;55.17;93138.47;4974541;28;20065;-77
2022/05/29 08:01:17;;;;;;;3.45;1.48;;;;;;;18.95;54.89;93152.75;4974539;28;20374;-76
2022/05/29 08:03:42;;;;;;;3.22;1.60;;;;;;;18.99;56.03;93141.97;4982490;28;20097;-75
2022/05/29 08:06:08;;;;;;;4.95;1.67;;;;;;;18.89;55.77;93122.69;4972113;28;20085;-75
2022/05/29 08:08:34;;;;;;;8.77;1.48;;;;;;;18.98;55.67;93135.03;4982249;28;20062;-75
2022/05/29 08:11:01;;;;;;;4.22;1.67;;;;;;;19.13;56.00;93125.81;4983463;28;20662;-75
2022/05/29 08:13:27;;;;;;;2.28;1.45;;;;;;;19.11;54.79;93128.16;4982599;28;20025;-73
2022/05/29 08:15:53;;;;;;;6.90;2.20;;;;;;;19.13;55.57;93120.44;4983501;28;20116;-75
2022/05/29 08:18:18;;;;;;;8.50;1.60;;;;;;;19.28;56.02;93130.06;4981638;28;20502;-75
2022/05/29 08:20:44;;;;;;;4.28;1.88;;;;;;;19.19;55.15;93097.34;4973404;28;20066;-75
2022/05/29 08:23:09;;;;;;;7.70;1.80;;;;;;;19.17;55.12;93083.47;4976894;28;20125;-76
2022/05/29 08:31:03;;;;;;;8.00;3.10;;;;;;;19.41;53.62;93119.69;4984987;28;20077;-76
2022/05/29 08:33:31;;;;;;;5.93;1.90;;;;;;;19.34;53.62;93117.75;4963973;28;20508;-75
2022/05/29 08:36:19;;;;;;;5.82;2.30;;;;;;;19.28;52.67;93093.09;4952834;28;20062;-76
2022/05/29 08:38:47;;;;;;;5.93;1.70;;;;;;;19.42;52.98;93110.44;4953469;28;20038;-75
2022/05/29 08:41:16;;;;;;;8.38;2.25;;;;;;;19.53;52.83;93122.81;4951884;28;20038;-75
2022/05/29 08:44:02;;;;;;;11.73;2.25;;;;;;;19.61;53.65;93108.16;4955100;28;20255;-75
2022/05/29 08:46:40;;;;;;;6.07;1.67;;;;;;;19.63;52.99;93119.34;4959407;28;20037;-75
2022/05/29 08:49:07;;;;;;;10.80;1.98;;;;;;;19.62;52.67;93115.09;4984455;28;20381;-76
2022/05/29 08:51:54;;;;;;;3.95;1.70;;;;;;;19.66;52.40;93121.25;4984428;28;20106;-76
2022/05/29 08:54:37;;;;;;;5.35;2.22;;;;;;;19.79;52.93;93108.16;4987277;28;20045;-76
2022/05/29 08:57:13;;;;;;;4.53;2.28;;;;;;;19.93;52.91;93118.13;4973662;28;20038;-76
2022/05/29 08:59:49;;;;;;;11.10;2.15;;;;;;;20.15;52.50;93103.44;4962232;28;20685;-76
2022/05/29 09:02:49;;;;;;;6.65;2.15;;;;;;;20.27;50.35;93110.38;4981427;28;20030;-75
2022/05/29 09:05:40;;;;;;;5.07;2.38;;;;;;;20.40;49.42;93106.84;4986834;28;20389;-75
2022/05/29 09:08:12;;;;;;;6.20;2.28;;;;;;;20.47;50.62;93103.38;4986144;28;20312;-75
2022/05/29 09:10:42;;;;;;;9.57;3.22;;;;;;;20.30;49.30;93077.97;4986571;28;20045;-75
2022/05/29 09:13:19;;;;;;;5.13;1.67;;;;;;;20.44;49.65;93093.31;4985063;28;20037;-76
2022/05/29 09:15:50;;;;;;;4.32;1.80;;;;;;;20.37;48.99;93104.16;4986149;28;20181;-75
2022/05/29 09:18:25;;;;;;;7.53;2.40;;;;;;;20.29;49.00;93092.59;4987040;28;20038;-75
2022/05/29 09:21:01;;;;;;;4.90;2.45;;;;;;;20.33;49.92;93074.50;4986534;28;20259;-75
2022/05/29 09:23:34;;;;;;;4.72;1.92;;;;;;;20.36;49.08;93071.00;4984780;28;20057;-75
2022/05/29 09:26:02;;;;;;;8.15;2.15;;;;;;;20.62;49.42;93093.25;4987038;28;20045;-75
2022/05/29 09:28:41;;;;;;;5.20;1.83;;;;;;;20.74;49.38;93079.28;4988612;28;20026;-75
2022/05/29 09:31:14;;;;;;;26.25;2.28;;;;;;;20.38;49.11;93057.88;4987223;28;20026;-75
2022/05/29 09:33:40;;;;;;;6.05;2.05;;;;;;;20.70;48.93;93078.56;4981063;28;20051;-75
2022/05/29 09:36:17;;;;;;;3.50;1.98;;;;;;;20.74;50.04;93073.88;4983109;28;20050;-75
2022/05/29 09:38:49;;;;;;;5.55;1.80;;;;;;;20.80;50.43;93072.31;4985423;28;20034;-75
2022/05/29 09:41:28;;;;;;;6.53;2.45;;;;;;;20.98;49.16;93071.06;4984894;28;20117;-75
2022/05/29 09:44:19;;;;;;;6.45;2.97;;;;;;;20.95;48.48;93069.16;4988930;28;20053;-76
2022/05/29 09:46:50;;;;;;;8.63;2.28;;;;;;;20.96;48.64;93067.25;4987285;28;20042;-76
2022/05/29 09:49:42;;;;;;;8.60;2.20;;;;;;;21.19;49.55;93066.69;4985490;28;20085;-75
2022/05/29 09:52:28;;;;;;;16.38;4.20;;;;;;;21.22;47.71;93060.47;4988133;28;20113;-75
2022/05/29 09:55:05;;;;;;;7.13;1.90;;;;;;;21.10;48.19;93042.03;4984543;28;20114;-75
2022/05/29 09:57:43;;;;;;;7.82;2.30;;;;;;;21.35;48.09;93054.22;4985595;28;20505;-76
2022/05/29 10:00:32;;;;;;;4.97;1.88;;;;;;;21.32;48.79;93049.56;4985721;28;20475;-75
2022/05/29 10:02:59;;;;;;;7.10;2.33;;;;;;;21.10;48.83;93029.28;4982601;28;20844;-75
2022/05/29 10:05:24;;;;;;;6.95;1.90;;;;;;;21.19;48.27;93045.81;4989758;28;20471;-75
2022/05/29 10:07:51;;;;;;;6.50;2.15;;;;;;;21.32;49.83;93027.94;4985133;28;20030;-76
2022/05/29 10:10:23;;;;;;;10.95;2.17;;;;;;;21.17;49.67;93047.41;4987433;28;20121;-76
2022/05/29 10:12:49;;;;;;;9.63;2.55;;;;;;;21.34;49.14;93036.44;4982815;28;20117;-75
2022/05/29 10:15:33;;;;;;;5.72;1.77;;;;;;;21.10;49.72;93034.69;4985264;28;20035;-76
2022/05/29 10:18:04;;;;;;;4.60;2.08;;;;;;;21.27;50.65;93033.00;4983123;28;20559;-75
2022/05/29 10:20:36;;;;;;;6.38;2.00;;;;;;;21.22;50.13;93026.09;4984932;28;20542;-76
2022/05/29 10:23:03;;;;;;;7.68;2.22;;;;;;;21.19;50.19;93023.44;4990270;28;20703;-76
2022/05/29 10:25:35;;;;;;;3.35;1.80;;;;;;;20.95;50.78;93019.75;4984762;28;20103;-76
2022/05/29 10:28:11;;;;;;;7.97;2.85;;;;;;;20.93;50.19;93011.25;4988322;28;20073;-75
2022/05/29 10:30:55;;;;;;;7.50;1.98;;;;;;;20.70;50.38;92992.88;4982264;28;20043;-75
2022/05/29 10:33:24;;;;;;;5.18;2.25;;;;;;;20.99;51.64;93021.25;4980769;28;20042;-75
2022/05/29 10:35:55;;;;;;;8.80;2.40;;;;;;;20.92;50.53;92994.28;4983028;28;20033;-75
2022/05/29 10:38:22;;;;;;;6.57;2.30;;;;;;;20.98;51.10;93000.03;4982738;28;20054;-75
2022/05/29 10:40:51;;;;;;;5.30;2.35;;;;;;;21.07;51.48;93010.41;4984703;28;20799;-75
2022/05/29 10:43:54;;;;;;;7.32;3.08;;;;;;;21.15;51.36;93012.66;4978902;28;20113;-76
2022/05/29 10:46:39;;;;;;;4.32;1.90;;;;;;;21.28;51.44;93002.88;4984887;28;20122;-75
2022/05/29 10:49:25;;;;;;;7.75;2.10;;;;;;;21.19;51.66;93013.38;4987604;28;20050;-77
2022/05/29 10:52:19;;;;;;;7.28;2.55;;;;;;;21.21;50.99;93000.25;4983338;28;20080;-76
2022/05/29 10:55:10;;;;;;;6.68;2.67;;;;;;;21.10;51.58;93004.97;4984514;28;20132;-75
2022/05/29 10:58:06;;;;;;;5.85;2.03;;;;;;;21.43;52.03;92987.28;4984723;28;20055;-76
2022/05/29 11:04:21;;;;;;;8.68;3.42;;;;;;;21.43;51.37;92985.34;4963584;28;21349;-75
2022/05/29 11:07:14;;;;;;;6.35;2.75;;;;;;;21.42;51.78;92962.16;4983940;28;20559;-75
2022/05/29 11:09:57;;;;;;;8.88;3.38;;;;;;;21.39;51.21;92968.38;4970100;28;20118;-75
2022/05/29 11:12:41;;;;;;;8.20;3.03;;;;;;;21.27;51.37;92966.19;4951898;28;20054;-75
2022/05/29 11:15:15;;;;;;;6.85;2.83;;;;;;;21.31;50.96;92964.22;4967754;28;20047;-75
2022/05/29 11:18:17;;;;;;;6.70;3.22;;;;;;;21.27;51.04;92944.53;4956650;28;20054;-75
2022/05/29 11:20:49;;;;;;;8.55;3.75;;;;;;;21.37;51.84;92946.38;4953177;28;20076;-75
2022/05/29 11:23:41;;;;;;;6.05;2.72;;;;;;;21.54;52.01;92946.59;4955471;28;20089;-76
2022/05/29 11:26:22;;;;;;;8.23;3.30;;;;;;;21.53;51.24;92939.66;4955173;28;20043;-75
2022/05/29 11:28:55;;;;;;;4.63;2.38;;;;;;;21.80;51.23;92932.44;4955481;28;20120;-75
2022/05/29 11:31:45;;;;;;;9.30;3.03;;;;;;;21.98;50.03;92922.16;4954593;28;20515;-76
2022/05/29 11:35:01;;;;;;;7.95;3.38;;;;;;;21.72;50.08;92920.16;4979404;28;20023;-76
2022/05/29 11:37:29;;;;;;;5.85;2.72;;;;;;;21.32;50.93;92919.00;4984250;28;20041;-75
2022/05/29 11:40:04;;;;;;;4.78;2.40;;;;;;;21.22;51.83;92907.13;4984483;28;20041;-76
2022/05/29 11:42:40;;;;;;;7.60;4.00;;;;;;;21.08;53.01;92885.63;4983832;28;20146;-75
2022/05/29 11:45:13;;;;;;;7.25;2.88;;;;;;;21.18;51.81;92886.69;4984632;28;20068;-76
2022/05/29 11:51:21;;;;;;;11.35;2.90;;;;;;;21.00;52.60;92881.47;4985451;28;20050;-75
2022/05/29 11:53:40;;;;;;;12.25;3.03;;;;;;;21.02;52.28;92895.38;4986610;28;20093;-75
2022/05/29 11:56:15;;;;;;;8.68;3.38;;;;;;;21.02;52.67;92877.19;4972768;28;20475;-75
2022/05/29 11:59:15;;;;;;;4.72;2.97;;;;;;;21.06;53.91;92890.69;4985512;28;20097;-75
2022/05/29 12:01:49;;;;;;;12.65;3.08;;;;;;;20.83;54.48;92871.56;4984383;28;20098;-75
2022/05/29 12:04:34;;;;;;;8.25;3.40;;;;;;;21.11;54.47;92892.97;4981704;28;20027;-75
2022/05/29 12:07:29;;;;;;;6.80;3.53;;;;;;;21.01;53.81;92883.03;4984328;28;20036;-75
2022/05/29 12:10:04;;;;;;;9.95;3.70;;;;;;;21.06;53.23;92890.69;4986436;28;20045;-76
2022/05/29 12:12:38;;;;;;;5.38;3.55;;;;;;;20.81;53.19;92880.09;4981851;28;20053;-76
2022/05/29 12:15:09;;;;;;;7.85;4.03;;;;;;;20.78;53.28;92893.59;4983067;28;20624;-76
2022/05/29 12:17:41;;;;;;;8.90;4.38;;;;;;;20.92;53.06;92885.44;4981519;28;20038;-75
2022/05/29 12:20:15;;;;;;;8.50;5.38;;;;;;;20.88;53.81;92890.84;4986022;28;20041;-75
2022/05/29 12:22:58;;;;;;;7.68;4.32;;;;;;;21.06;53.97;92873.72;4982326;28;20154;-75
2022/05/29 12:25:58;;;;;;;5.78;4.55;;;;;;;21.02;54.00;92879.91;4986905;28;20125;-75
2022/05/29 12:28:52;;;;;;;9.63;4.50;;;;;;;21.10;54.44;92875.19;4982343;28;20092;-75